Decoded Metar for LFRM (LE MANS in FRANCE) (IATA:LME) | Meteo·Mobile Aviation Weather
aviador You're here:

LFRM Decoded Metar

LE MANS in FRANCE
Report Time2019-02-17 19:30:00
UTC Time2019-02-17 19:59:20
Flight Rules vfr VFR
Wind090° at 02 kt
W.Decomp.*RWY 02: 0.7 kt HW 1.9 kt RCW
W.Rank090° ranks 21
Current wind is below 090° avg. (5.0)
Visibility9999 m
Phenomena:N/A
Clouds:N/A
Expected CloudBase > 2,000 ft AGL from Temp-Dew spread
CeilingNone
Temp08°C (ISA -7)
Dew Point03°C (71% RH)
AAT5.8°C
QNH1019 hPa
Density Alt-728 ft
Elevation171 ft
Report Wrong Elevation
Raw Report
METAR LFRM 171930Z AUTO 09002KT CAVOK 08/03 Q1019=

Extra information for LFRM:More info

Metar Taf Metar & Taf Last 4 Metars F.Rules Stats Wind Profile Meteogram Temp Stats Airport Information Weather charts Add Link Nearby VenuesMetar ALERT Operation Metar Decoded Social comments